Weather observations for the past three days for
Perry-Foley Airport
Imperial (Metric)
Date Time (edt) Wind (mph) Vis. (mi.) Weather Sky Cond. Temperature (ºF) Relative Humidity Wind Chill (°F) Heat Index (°F) Pressure Precipitation (in)
Air Dwpt 6 hour altimeter (in) sea level (mb) 1 hr 3 hr 6 hr
Max. Min.
02 22:35 E 3 10.00 Fair CLR 79.9 75.6 87% 85 30.01 0.0
02 22:15 E 3 10.00 Fair CLR 80.2 75.6 86% 86 30.02 0.0
02 21:55 E 5 10.00 Fair CLR 80.2 76.1 87% 86 30.02 0.0
02 21:35 Calm 10.00 Fair CLR 80.1 76.5 89% 86 30.01 0.0
02 21:15 Calm 10.00 Fair CLR 80.2 76.1 87% 86 30.01 0.0
02 20:55 Calm 10.00 Fair CLR 79.9 76.3 89% 85 30 0.0
02 20:35 Calm 10.00 Fair CLR 79.5 76.6 91% 84 30 0.0
02 20:15 Calm 10.00 Fair CLR 79.9 75.9 88% 85 29.99 0.0
02 19:55 Calm 10.00 Partly Cloudy SCT030 SCT045 SCT055 80.4 75.4 85% 86 29.99 0.0
02 19:35 NE 9 G 16 10.00 Thunderstorm in Vicinity SCT043 SCT050 SCT065 83.3 76.3 79% 92 29.98 0.0
02 19:15 Calm 10.00 Partly Cloudy SCT065 82.9 78.3 86% 93 29.98 0.0
02 18:55 Calm 10.00 Thunderstorm in Vicinity CLR 81.9 78.4 89% 91 29.99 0.0
02 18:35 Calm 10.00 Thunderstorm in Vicinity SCT060 SCT070 SCT080 81.7 78.4 90% 90 29.99 0.0
02 18:15 Calm 10.00 Thunderstorm in Vicinity SCT060 BKN070 OVC120 81.1 77.7 89% 89 29.99 0.0
02 17:55 Calm 7.00 Light Rain SCT033 SCT048 OVC060 81.1 76.6 86% 88 29.99 0.0 0.01
02 17:35 E 8 G 17 10.00 Rain SCT042 BKN048 OVC060 83.8 75.6 76% 92 29.99 0.0
02 17:15 NE 7 0.00 NULL NULL 92.3 73.6 54% 102 29.97 0.0
02 16:15 Calm 10.00 Partly Cloudy SCT046 94.1 72.5 50% 103 29.98 0.0
02 15:55 Calm 10.00 Partly Cloudy SCT046 SCT055 90.7 72.5 55% 99 29.98 0.0
02 15:35 Calm 10.00 Partly Cloudy SCT050 93.2 71.8 50% 101 29.99 0.0
02 15:15 Calm 10.00 Partly Cloudy SCT050 SCT065 93 73.4 53% 103 30 0.0
02 14:55 Calm 10.00 Partly Cloudy SCT050 SCT065 92.3 72.9 53% 101 30.01 0.0
02 14:35 Calm 10.00 Partly Cloudy SCT040 SCT047 SCT060 91.9 73.4 55% 101 30.02 0.0
02 14:15 Calm 10.00 Mostly Cloudy SCT040 BKN047 BKN060 89.4 73.2 59% 98 30.03 0.0
02 13:55 Calm 10.00 Partly Cloudy SCT040 SCT048 92.3 73.4 92.5 75.9 54% 102 30.03 0.0
02 13:35 NE 5 10.00 Partly Cloudy SCT035 SCT045 SCT055 91.4 73.6 56% 101 30.04 0.0
02 13:15 Calm 10.00 Partly Cloudy SCT033 SCT045 SCT055 90 74.8 61% 100 30.04 0.0
02 12:55 Calm 10.00 Partly Cloudy SCT028 SCT034 SCT041 89.8 74.7 61% 100 30.05 0.0
02 12:35 Calm 10.00 Mostly Cloudy SCT028 SCT034 BKN040 88.5 74.7 64% 98 30.06 0.0
02 12:15 Calm 10.00 Partly Cloudy SCT026 SCT044 89.6 75.6 63% 101 30.07 0.0
02 11:55 Calm 10.00 Mostly Cloudy SCT024 BKN037 88 75.9 68% 99 30.07 0.0
02 11:35 NE 8 10.00 Partly Cloudy SCT022 87.8 75.9 68% 99 30.08 0.0
02 11:15 Calm 10.00 Partly Cloudy SCT020 86.7 75.6 69% 97 30.08 0.0
02 10:55 Calm 10.00 Partly Cloudy SCT014 84.7 76.3 76% 94 30.07 0.0
02 10:35 Calm 10.00 Partly Cloudy SCT014 85.1 76.6 76% 95 30.08 0.0
02 10:15 Calm 10.00 Fair CLR 83.1 76.8 81% 92 30.07 0.0
02 09:55 Calm 10.00 Partly Cloudy SCT005 80.6 76.8 88% 87 30.08 0.0
02 09:35 Calm 10.00 Mostly Cloudy BKN003 79.3 77.2 93% 84 30.08 0.0
02 09:15 Calm 10.00 Overcast OVC003 77.9 76.5 95% 80 30.07 0.0
02 08:55 Calm 5.00 Fog/Mist OVC003 77.2 76.1 96% 78 30.07 0.0
02 08:35 Calm 5.00 Fog/Mist OVC003 76.8 75.4 95% 77 30.07 0.0
02 08:15 Calm 10.00 Mostly Cloudy BKN003 76.1 75 96% 76 30.07 0.0
02 07:55 Calm 10.00 Fair CLR 75.7 74.7 76.1 73.2 96% 75 30.07 0.0
02 07:35 Calm 10.00 Fair CLR 75.4 74.3 96% 74 30.06 0.0
02 07:15 Calm 7.00 Partly Cloudy SCT002 74.8 73.8 96% 30.06 0.0
02 06:55 Calm 7.00 Fair CLR 74.7 73.6 96% 30.05 0.0
02 06:35 Calm 7.00 Fair CLR 75 73.8 96% 73 30.05 0.0
02 06:15 Calm 10.00 Fair CLR 75.2 73.9 96% 73 30.04 0.0
02 05:55 Calm 10.00 Fair CLR 75.2 74.1 96% 73 30.04 0.0
02 05:35 Calm 10.00 Fair CLR 75 73.8 96% 73 30.04 0.0
02 05:15 Calm 10.00 Fair CLR 75.9 74.5 95% 75 30.03 0.0
02 04:55 Calm 10.00 Fair CLR 75.6 74.5 96% 74 30.03 0.0
02 04:35 NE 3 10.00 Fair CLR 75.2 74.1 96% 73 30.02 0.0
02 04:15 Calm 3.00 Fog/Mist CLR 73.8 72.7 96% 30.02 0.0
02 03:55 Calm 2.50 Fog/Mist CLR 73.4 72.3 96% 30.02 0.0
02 03:35 Calm 10.00 Fair CLR 73.6 72.5 96% 30.02 0.0
02 03:15 Calm 1.75 Fog/Mist VV007 74.8 73.8 96% 30.02 0.0
02 02:55 Calm 2.00 Fog/Mist CLR 74.3 73 96% 30.02 0.0
02 02:35 Calm 7.00 Fair CLR 74.7 73.4 96% 30.03 0.0
02 02:15 Calm 5.00 Fog/Mist CLR 74.5 73.4 96% 30.03 0.0
02 01:55 Calm 10.00 Fair CLR 76.3 75 81 74.8 96% 76 30.03 0.0
02 01:35 Calm 10.00 Fair CLR 75.2 73.8 95% 74 30.04 0.0
02 01:15 Calm 10.00 Fair CLR 75 73.9 96% 73 30.04 0.0
02 00:55 Calm 10.00 Fair CLR 75.6 73.9 95% 74 30.05 0.0
02 00:35 Calm 10.00 Fair CLR 75.9 74.3 95% 75 30.05 0.0
02 00:15 Calm 10.00 Fair CLR 76.5 74.7 94% 77 30.05 0.0
01 23:55 Calm 10.00 Fair CLR 75.9 73.9 94% 75 30.05 0.0
01 23:35 Calm 10.00 Fair CLR 76.5 74.5 94% 77 30.05 0.0
01 23:15 Calm 10.00 Fair CLR 77.4 74.8 92% 79 30.05 0.0
01 22:55 Calm 10.00 Fair CLR 77.5 74.7 91% 79 30.05 0.0
01 22:35 Calm 10.00 Fair CLR 78.1 74.8 90% 81 30.05 0.0
01 22:15 Calm 10.00 Fair CLR 77.7 75 91% 80 30.05 0.0
01 21:55 Calm 10.00 Fair CLR 77.7 74.7 90% 80 30.05 0.0
01 21:35 Calm 10.00 Fair CLR 78.6 74.5 87% 82 30.04 0.0
01 21:15 Calm 10.00 Fair CLR 79.3 74.8 86% 83 30.04 0.0
01 20:55 Calm 10.00 Fair CLR 79.7 74.8 85% 84 30.04 0.0
01 20:35 Calm 10.00 Fair CLR 79.7 75 86% 84 30.03 0.0
01 20:15 Calm 10.00 Fair CLR 80.6 75.2 84% 86 30.04 0.0
01 19:55 Calm 10.00 Fair CLR 81.1 75.2 94.1 81.1 82% 87 30.03 0.0
01 19:35 Calm 10.00 Fair CLR 83.5 74.7 75% 91 30.02 0.0
01 19:15 E 7 10.00 Fair CLR 84.6 74.3 71% 92 30.02 0.0
01 18:55 Calm 10.00 Fair CLR 85.3 73.9 69% 93 30.03 0.0
01 18:35 Calm 10.00 Fair CLR 86.4 73.9 67% 94 30.01 0.0
01 18:15 Calm 10.00 Partly Cloudy SCT110 85.3 75 71% 94 30.01 0.0
01 17:55 Calm 10.00 Mostly Cloudy BKN048 BKN110 85.5 74.3 69% 94 30.01 0.0
01 17:35 Calm 10.00 Thunderstorm SCT048 BKN060 92.8 71.8 50% 101 30 0.0
01 17:15 Calm 10.00 Partly Cloudy SCT048 93.4 72 50% 101 29.99 0.0
01 16:55 Calm 10.00 Partly Cloudy SCT046 SCT049 92.8 72.1 51% 101 30 0.0
01 16:35 Calm 10.00 Fair CLR 93 72.7 52% 102 30 0.0
01 16:15 N 8 10.00 Partly Cloudy SCT045 SCT065 92.8 71.8 50% 101 30.01 0.0
01 15:55 Calm 10.00 Fair CLR 92.7 72 51% 101 30.01 0.0
01 15:35 Calm 10.00 Partly Cloudy SCT045 92.8 72.1 51% 101 30.01 0.0
01 15:15 Calm 10.00 Partly Cloudy SCT043 90.3 71.2 54% 97 30.02 0.0
01 14:55 NW 5 10.00 Partly Cloudy SCT041 92.3 72.9 53% 101 30.03 0.0
01 14:35 Calm 10.00 Partly Cloudy SCT041 SCT047 91.6 73 55% 100 30.03 0.0
01 14:15 Calm 10.00 Partly Cloudy SCT041 SCT046 91 72.5 55% 99 30.04 0.0
01 13:55 Calm 10.00 Mostly Cloudy SCT039 BKN046 BKN060 91.4 72 91.8 75.7 53% 99 30.05 0.0
01 13:35 Calm 10.00 Partly Cloudy SCT037 SCT050 SCT060 91.4 73.2 55% 100 30.06 0.0
01 13:15 Calm 10.00 Partly Cloudy SCT035 SCT042 90.1 72.7 57% 98 30.07 0.0
01 12:55 Calm 10.00 Partly Cloudy SCT035 88 72.5 60% 95 30.08 0.0
01 12:35 Calm 10.00 Mostly Cloudy SCT030 SCT040 BKN048 87.4 73.4 63% 95 30.08 0.0
01 12:15 Calm 10.00 Partly Cloudy SCT030 89.8 74.5 61% 100 30.09 0.0
01 11:55 Calm 10.00 Fair CLR 88.7 73.2 60% 97 30.09 0.0
01 11:35 Calm 10.00 Thunderstorm in Vicinity SCT025 86.4 72.7 64% 93 30.09 0.0
01 11:15 Calm 10.00 Partly Cloudy SCT025 87.1 74.7 67% 96 30.09 0.0
01 10:35 Calm 10.00 Fair CLR 85.1 74.1 70% 93 30.08 0.0
01 10:15 Calm 10.00 Fair CLR 85.1 74.8 71% 93 30.08 0.0
01 09:55 Calm 10.00 Fair CLR 83.7 75.6 77% 92 30.08 0.0
01 09:35 Calm 10.00 Fair CLR 82.6 76.1 81% 90 30.07 0.0
01 09:15 Calm 10.00 Fair CLR 81 75.9 85% 87 30.08 0.0
01 08:55 Calm 10.00 Fair CLR 79.7 75.7 88% 85 30.08 0.0
01 08:35 Calm 10.00 Thunderstorm in Vicinity CLR 77.9 75 91% 80 30.08 0.0
01 08:15 Calm 10.00 Fair CLR 77 74.5 92% 78 30.07 0.0
01 07:55 Calm 10.00 Fair CLR 75.6 74.1 76.6 74.7 95% 74 30.07 0.0
01 07:35 Calm 10.00 Fair CLR 75.2 73.8 95% 74 30.06 0.0
01 07:15 Calm 10.00 Fair CLR 75.2 73.6 95% 74 30.06 0.0
01 06:55 Calm 10.00 Fair CLR 74.8 73.4 95% 30.05 0.0
01 06:35 Calm 10.00 Fair CLR 75 73.4 95% 73 30.04 0.0
01 06:15 Calm 10.00 Fair CLR 75 73.4 95% 73 30.04 0.0
01 05:55 Calm 10.00 Fair CLR 75 73.6 95% 73 30.03 0.0
01 05:35 Calm 10.00 Fair CLR 74.7 73.4 96% 30.03 0.0
01 05:15 Calm 10.00 Fair CLR 75 73.4 95% 73 30.03 0.0
01 04:55 Calm 10.00 Fair CLR 74.8 73.4 95% 30.03 0.0
01 04:35 Calm 10.00 Fair CLR 74.8 73.4 95% 30.02 0.0
01 04:15 Calm 10.00 Fair CLR 75.2 73.6 95% 74 30.03 0.0
01 03:55 Calm 10.00 Fair CLR 76.1 74.3 94% 76 30.03 0.0
01 03:35 Calm 10.00 Fair CLR 76.1 74.3 94% 76 30.03 0.0
01 03:15 Calm 10.00 Fair CLR 76.3 74.3 94% 76 30.04 0.0
01 02:55 Calm 10.00 Fair CLR 76.5 74.5 94% 77 30.04 0.0
01 02:35 Calm 10.00 Fair CLR 76.5 74.5 94% 77 30.05 0.0
01 02:15 Calm 10.00 Fair CLR 76.6 74.5 93% 77 30.05 0.0
01 01:55 Calm 10.00 Fair CLR 76.8 74.7 84.9 76.1 93% 78 30.06 0.0
01 01:35 Calm 10.00 Fair CLR 76.6 74.8 94% 77 30.06 0.0
01 01:15 Calm 10.00 Fair CLR 76.3 74.7 95% 76 30.06 0.0
01 00:55 Calm 10.00 Fair CLR 76.6 75 95% 77 30.07 0.0
01 00:35 Calm 10.00 Fair CLR 76.6 74.8 94% 77 30.07 0.0
01 00:15 Calm 10.00 Fair CLR 77 75.2 94% 78 30.07 0.0
31 23:55 Calm 10.00 Fair CLR 77.2 75.4 94% 78 30.07 0.0
31 23:35 Calm 10.00 Fair CLR 77.2 75.6 95% 78 30.07 0.0
31 23:15 Calm 10.00 Partly Cloudy SCT039 77 75.2 94% 78 30.07 0.0
31 22:55 Calm 10.00 Partly Cloudy SCT041 77.9 75.2 91% 80 30.08 0.0
31 22:35 Calm 10.00 Mostly Cloudy BKN039 77.9 75.2 91% 80 30.08 0.0
31 22:15 Calm 10.00 Mostly Cloudy SCT033 SCT042 BKN080 78.3 75.6 91% 81 30.07 0.0
31 21:55 Calm 10.00 Mostly Cloudy SCT027 SCT035 BKN065 78.8 75.7 90% 82 30.07 0.0
31 21:35 Calm 10.00 Light Rain OVC035 80.1 76.1 88% 85 30.06 0.0
31 21:15 S 3 10.00 Overcast BKN037 OVC047 81.5 76.1 84% 88 30.06 0.0
31 20:55 Calm 10.00 Mostly Cloudy BKN046 BKN050 BKN070 82.6 75.6 79% 90 30.04 0.0
31 20:35 Calm 10.00 Thunderstorm in Vicinity SCT042 SCT060 82.6 75.4 79% 90 30.03 0.0
31 20:15 Calm 10.00 Thunderstorm in Vicinity SCT110 84 74.1 72% 91 30.02 0.0
31 19:55 Calm 10.00 Mostly Cloudy SCT090 BKN120 83.8 74.7 93.6 83.8 74% 91 30.02 0.0
31 19:35 Calm 10.00 Mostly Cloudy BKN120 84.4 74.7 73% 92 30.02 0.0
31 19:15 Calm 10.00 Partly Cloudy SCT049 SCT100 85.3 73.9 69% 93 30.01 0.0
31 18:55 Calm 10.00 Mostly Cloudy BKN049 BKN055 BKN075 86.9 74.5 67% 96 30.02 0.0
31 18:35 Calm 10.00 Mostly Cloudy BKN049 BKN055 BKN075 89.8 73.9 60% 99 30.01 0.0
31 18:15 Calm 10.00 Fair CLR 91 73.4 56% 100 30 0.0
31 17:55 Calm 10.00 Partly Cloudy SCT048 SCT060 SCT070 91.9 71.8 52% 99 30.01 0.0
31 17:35 Calm 10.00 Partly Cloudy SCT048 SCT080 93.6 73.2 52% 103 30.01 0.0
31 17:15 Calm 10.00 Fair CLR 93 72.9 52% 102 30.01 0.0
31 16:55 Calm 10.00 Partly Cloudy SCT044 SCT050 91.6 73 55% 100 30.01 0.0
31 16:35 Calm 10.00 Partly Cloudy SCT044 93 72.5 51% 102 30.01 0.0
31 16:15 Calm 10.00 Fair CLR 93 72.5 51% 102 30.01 0.0
31 15:55 Calm 10.00 Partly Cloudy SCT040 SCT050 SCT085 93.2 73 52% 102 30.02 0.0
31 15:35 Calm 10.00 Partly Cloudy SCT040 SCT048 SCT085 90.1 72.9 57% 98 30.03 0.0
31 15:15 Calm 10.00 Partly Cloudy SCT040 92.1 73 54% 101 30.03 0.0
31 14:55 Calm 10.00 Partly Cloudy SCT038 91.6 73.9 56% 101 30.04 0.0
31 14:35 Calm 10.00 Partly Cloudy SCT036 90.7 74.7 59% 101 30.04 0.0
31 14:15 Calm 10.00 Fair CLR 91.4 74.3 57% 101 30.06 0.0
31 13:55 NW 6 10.00 Fair CLR 90.1 74.3 90.5 75.4 60% 100 30.07 0.0
31 13:35 N 8 10.00 Partly Cloudy SCT032 SCT037 SCT045 89.6 74.7 62% 100 30.07 0.0
31 13:15 Calm 10.00 Partly Cloudy SCT032 SCT047 SCT050 87.6 73.9 64% 96 30.08 0.0
31 12:55 Calm 10.00 Mostly Cloudy SCT029 SCT039 BKN065 88.3 74.8 64% 98 30.09 0.0
31 12:35 Calm 10.00 Mostly Cloudy SCT029 BKN039 BKN075 89.2 74.5 62% 99 30.1 0.0
31 12:15 Calm 10.00 Mostly Cloudy SCT027 SCT035 BKN075 86.7 73.4 65% 94 30.1 0.0
31 11:55 Calm 10.00 Mostly Cloudy SCT025 BKN033 88.3 74.8 64% 98 30.11 0.0
31 11:35 Calm 10.00 Partly Cloudy SCT023 SCT030 85.3 74.5 70% 93 30.11 0.0
31 11:15 Calm 10.00 Partly Cloudy SCT021 SCT028 84.2 75 74% 92 30.1 0.0
31 10:55 Calm 10.00 Mostly Cloudy SCT014 BKN021 83.3 75.6 78% 91 30.1 0.0
31 10:35 Calm 10.00 Overcast BKN012 OVC019 85.5 77.5 77% 97 30.09 0.0
31 10:15 Calm 10.00 Mostly Cloudy BKN010 83.7 76.6 79% 93 30.09 0.0
31 09:55 Calm 10.00 Mostly Cloudy BKN008 82.2 76.8 84% 90 30.09 0.0
31 09:35 Calm 10.00 Mostly Cloudy BKN006 80.2 76.5 88% 86 30.09 0.0
31 09:15 Calm 10.00 Partly Cloudy SCT006 79.9 76.1 88% 85 30.09 0.0
31 08:55 Calm 10.00 Fair CLR 78.4 75.4 90% 82 30.09 0.0
31 08:35 NE 3 10.00 Fair CLR 77.2 75.2 94% 78 30.08 0.0
31 08:15 Calm 10.00 Fair CLR 76.1 74.5 95% 76 30.08 0.0
31 07:55 Calm 10.00 Partly Cloudy SCT006 75.2 73.9 75.9 74.7 96% 73 30.07 0.0 0.01
31 07:35 Calm 10.00 Mostly Cloudy BKN006 75 73.6 95% 73 30.06 0.0
31 07:15 Calm 10.00 Mostly Cloudy SCT003 BKN008 74.8 73.4 95% 30.06 0.0
31 06:55 Calm 10.00 Overcast OVC010 75.2 73.8 95% 74 30.06 0.0
31 06:35 Calm 10.00 Overcast OVC010 75.2 73.8 95% 74 30.05 0.0
31 06:15 Calm 10.00 Partly Cloudy SCT008 74.8 73.6 96% 30.05 0.0
31 05:55 Calm 10.00 Fair CLR 75 73.8 96% 73 30.04 0.0
31 05:35 Calm 10.00 Partly Cloudy SCT003 74.8 73.6 96% 30.04 0.0
31 05:15 Calm 10.00 Fair CLR 74.7 73.4 96% 30.04 0.0
31 04:55 Calm 10.00 Fair CLR 74.8 73.4 95% 30.03 0.0 0.01 0.01
31 04:35 Calm 10.00 Fair CLR 75.2 73.6 95% 74 30.04 0.0
31 04:15 Calm 10.00 Fair CLR 75.2 73.8 95% 74 30.04 0.0
31 03:55 Calm 10.00 Fair CLR 75 73.4 95% 73 30.04 0.0
31 03:35 Calm 10.00 Fair CLR 75.2 73.6 95% 74 30.05 0.0
31 03:15 Calm 10.00 Fair CLR 75.7 73.9 94% 75 30.05 0.0
31 02:55 Calm 10.00 Fair CLR 75.9 74.1 94% 75 30.05 0.0
31 02:35 Calm 10.00 Fair CLR 75.4 74.3 96% 74 30.05 0.0
31 02:15 Calm 7.00 Fair CLR 75.2 73.8 95% 74 30.05 0.0
31 01:55 Calm 10.00 Fair CLR 75.6 74.3 83.3 75.6 96% 74 30.06 0.0 0.01
31 01:35 Calm 10.00 Partly Cloudy SCT022 SCT033 75.9 74.3 95% 75 30.06 0.0
31 01:15 Calm 10.00 Partly Cloudy SCT033 76.3 74.5 94% 76 30.06 0.0
Date Time (edt) Wind (mph) Vis. (mi.) Weather Sky Cond. Air Dwpt Max. Min. Relative Humidity Wind Chill (°F) Heat Index (°F) altimeter (in) sea level (mb) 1 hr 3 hr 6 hr
6 hour
Temperature (ºF) Pressure Precipitation (in)